createdAt,value
2019-05-22T00:01:58.098Z,12.40
2019-05-22T00:04:34.551Z,12.30
2019-05-22T00:07:06.143Z,12.30
2019-05-22T00:09:39.969Z,12.30
2019-05-22T00:12:17.515Z,12.30
2019-05-22T00:14:49.237Z,12.30
2019-05-22T00:17:22.342Z,12.30
2019-05-22T00:19:51.594Z,12.30
2019-05-22T00:22:26.414Z,12.30
2019-05-22T00:24:58.638Z,12.30
2019-05-22T00:27:30.671Z,12.40
2019-05-22T00:30:02.324Z,12.40
2019-05-22T00:32:33.297Z,12.40
2019-05-22T00:35:08.753Z,12.40
2019-05-22T00:37:38.457Z,12.40
2019-05-22T00:40:12.139Z,12.40
2019-05-22T00:42:45.135Z,12.40
2019-05-22T00:45:15.332Z,12.50
2019-05-22T00:47:44.580Z,12.40
2019-05-22T00:50:20.852Z,12.40
2019-05-22T00:53:02.865Z,12.40
2019-05-22T00:55:48.245Z,12.40
2019-05-22T00:58:20.163Z,12.40
2019-05-22T01:00:52.164Z,12.40
2019-05-22T01:03:24.571Z,12.50
2019-05-22T01:05:55.626Z,12.50
2019-05-22T01:08:28.184Z,12.50
2019-05-22T01:11:00.261Z,12.50
2019-05-22T01:13:35.250Z,12.50
2019-05-22T01:16:07.345Z,12.50
2019-05-22T01:18:38.773Z,12.50
2019-05-22T01:21:10.229Z,12.50
2019-05-22T01:23:41.931Z,12.50
2019-05-22T01:26:15.857Z,12.50
2019-05-22T01:28:46.464Z,12.40
2019-05-22T01:31:24.515Z,12.40
2019-05-22T01:34:00.242Z,12.40
2019-05-22T01:36:51.349Z,12.40
2019-05-22T01:39:44.831Z,12.30
2019-05-22T01:42:15.800Z,12.40
2019-05-22T01:44:59.753Z,12.40
2019-05-22T01:47:35.769Z,12.40
2019-05-22T01:50:07.087Z,12.30
2019-05-22T01:52:38.140Z,12.30
2019-05-22T01:55:09.179Z,12.20
2019-05-22T01:57:38.794Z,12.30
2019-05-22T02:00:09.442Z,12.20
2019-05-22T02:02:38.584Z,12.30
2019-05-22T02:05:10.023Z,12.30
2019-05-22T02:07:41.178Z,12.30
2019-05-22T02:10:17.014Z,12.30
2019-05-22T02:12:54.518Z,12.30
2019-05-22T02:15:25.652Z,12.20
2019-05-22T02:17:59.756Z,12.10
2019-05-22T02:20:29.531Z,12.20
2019-05-22T02:22:59.906Z,12.10
2019-05-22T02:25:32.383Z,12.20
2019-05-22T02:28:01.675Z,12.20
2019-05-22T02:30:33.874Z,12.20
2019-05-22T02:33:04.575Z,12.20
2019-05-22T02:35:34.663Z,12.20
2019-05-22T02:38:04.124Z,12.20
2019-05-22T02:40:37.492Z,12.20
2019-05-22T02:43:09.141Z,12.20
2019-05-22T02:45:39.316Z,12.20
2019-05-22T02:48:09.478Z,12.30
2019-05-22T02:50:41.922Z,12.30
2019-05-22T02:53:13.919Z,12.30
2019-05-22T02:55:43.202Z,12.40
2019-05-22T02:58:13.219Z,12.40
2019-05-22T03:00:57.245Z,12.40
2019-05-22T03:03:27.429Z,12.30
2019-05-22T03:05:57.914Z,12.30
2019-05-22T03:08:35.015Z,12.30
2019-05-22T03:11:04.259Z,12.20
2019-05-22T03:13:59.812Z,12.20
2019-05-22T03:16:36.096Z,12.20
2019-05-22T03:19:08.804Z,12.20
2019-05-22T03:21:37.840Z,12.20
2019-05-22T03:24:08.154Z,12.30
2019-05-22T03:26:48.770Z,12.30
2019-05-22T03:29:19.889Z,12.30
2019-05-22T03:31:50.266Z,12.30
2019-05-22T03:34:19.413Z,12.30
2019-05-22T03:36:48.879Z,12.30
2019-05-22T03:39:18.048Z,12.40
2019-05-22T03:41:47.216Z,12.40
2019-05-22T03:44:17.255Z,12.50
2019-05-22T03:46:50.517Z,12.50
2019-05-22T03:49:30.961Z,12.50
2019-05-22T03:51:52.450Z,12.50
2019-05-22T03:54:21.755Z,12.50
2019-05-22T03:56:51.849Z,12.50
2019-05-22T03:59:20.835Z,12.50
2019-05-22T04:01:49.963Z,12.50
2019-05-22T04:04:37.065Z,12.50
2019-05-22T04:07:08.384Z,12.50
2019-05-22T04:09:40.363Z,12.50
2019-05-22T04:12:10.447Z,12.50
2019-05-22T04:14:40.874Z,12.60
2019-05-22T04:17:12.844Z,12.60
2019-05-22T04:19:50.288Z,12.60
2019-05-22T04:22:16.328Z,12.60
2019-05-22T04:24:47.559Z,12.70
2019-05-22T04:27:17.666Z,12.70
2019-05-22T04:29:47.654Z,12.70
2019-05-22T04:32:35.271Z,12.80
2019-05-22T04:35:08.896Z,12.80
2019-05-22T04:37:38.560Z,12.80
2019-05-22T04:40:46.777Z,12.80
2019-05-22T04:43:20.587Z,12.80
2019-05-22T04:45:48.996Z,12.60
2019-05-22T04:48:19.705Z,12.60
2019-05-22T04:50:52.020Z,12.50
2019-05-22T04:53:22.155Z,12.40
2019-05-22T04:55:52.506Z,12.30
2019-05-22T04:58:31.085Z,12.30
2019-05-22T05:01:00.904Z,12.30
2019-05-22T05:03:30.004Z,12.30
2019-05-22T05:06:00.086Z,12.40
2019-05-22T05:08:29.987Z,12.40
2019-05-22T05:11:02.776Z,12.40
2019-05-22T05:13:32.363Z,12.50
2019-05-22T05:16:02.537Z,12.60
2019-05-22T05:18:32.274Z,12.80
2019-05-22T05:21:02.087Z,12.80
2019-05-22T05:23:31.091Z,12.90
2019-05-22T05:26:31.841Z,13.00
2019-05-22T05:29:01.334Z,13.00
2019-05-22T05:31:31.033Z,13.00
2019-05-22T05:34:29.170Z,13.00
2019-05-22T05:37:00.541Z,13.00
2019-05-22T05:40:32.815Z,13.20
2019-05-22T05:43:09.234Z,13.30
2019-05-22T05:45:49.440Z,13.30
2019-05-22T05:48:26.140Z,13.50
2019-05-22T05:51:39.425Z,13.60
2019-05-22T05:54:15.297Z,13.70
2019-05-22T05:56:48.446Z,13.70
2019-05-22T05:59:23.134Z,13.80
2019-05-22T06:01:55.030Z,13.90
2019-05-22T06:04:41.107Z,13.80
2019-05-22T06:07:24.360Z,13.70
2019-05-22T06:10:21.574Z,13.50
2019-05-22T06:12:51.420Z,13.60
2019-05-22T06:15:22.355Z,13.60
2019-05-22T06:18:31.776Z,13.60
2019-05-22T06:21:04.204Z,13.70
2019-05-22T06:24:10.454Z,13.70
2019-05-22T06:27:30.305Z,13.80
2019-05-22T06:30:16.224Z,13.90
2019-05-22T06:33:52.498Z,14.00
2019-05-22T06:37:26.860Z,14.10
2019-05-22T07:06:34.225Z,15.20
2019-05-22T07:28:31.478Z,15.70
2019-05-22T07:31:30.181Z,15.80
2019-05-22T07:34:34.894Z,15.90
2019-05-22T07:37:18.513Z,15.90
2019-05-22T07:40:29.565Z,16.00
2019-05-22T07:43:25.473Z,15.80
2019-05-22T08:03:26.280Z,16.00
2019-05-22T08:05:57.955Z,16.30
2019-05-22T08:08:29.650Z,16.50
2019-05-22T08:11:19.547Z,16.60
2019-05-22T08:13:48.668Z,16.50
2019-05-22T08:16:18.249Z,16.50
2019-05-22T08:18:47.451Z,16.60
2019-05-22T08:21:16.629Z,16.90
2019-05-22T08:23:46.137Z,17.10
2019-05-22T08:26:16.597Z,17.20
2019-05-22T08:28:45.626Z,17.40
2019-05-22T08:31:15.858Z,17.30
2019-05-22T08:33:44.773Z,17.10
2019-05-22T08:36:14.618Z,16.90
2019-05-22T08:38:45.019Z,17.00
2019-05-22T08:41:16.159Z,17.00
2019-05-22T08:44:14.428Z,16.90
2019-05-22T08:46:17.765Z,17.00
2019-05-22T08:48:48.905Z,16.90
2019-05-22T08:51:18.662Z,16.80
2019-05-22T08:53:48.692Z,16.80
2019-05-22T08:56:19.559Z,17.10
2019-05-22T08:58:48.416Z,17.30
2019-05-22T09:01:17.331Z,17.40
2019-05-22T09:03:46.454Z,17.60
2019-05-22T09:06:15.346Z,17.80
2019-05-22T09:08:44.227Z,17.60
2019-05-22T09:11:12.982Z,17.60
2019-05-22T09:13:42.085Z,17.80
2019-05-22T09:16:12.092Z,17.60
2019-05-22T09:18:41.030Z,17.50
2019-05-22T09:21:09.966Z,17.70
2019-05-22T09:23:40.940Z,17.90
2019-05-22T09:26:10.818Z,18.40
2019-05-22T09:28:39.812Z,18.80
2019-05-22T09:31:08.618Z,19.00
2019-05-22T09:33:38.429Z,19.10
2019-05-22T09:36:08.615Z,18.90
2019-05-22T09:38:37.520Z,19.10
2019-05-22T09:41:06.657Z,19.30
2019-05-22T09:43:35.532Z,19.50
2019-05-22T09:46:05.876Z,19.60
2019-05-22T09:48:36.227Z,19.30
2019-05-22T09:51:05.112Z,19.30
2019-05-22T09:53:35.015Z,19.60
2019-05-22T09:56:04.614Z,19.60
2019-05-22T09:58:33.524Z,19.80
2019-05-22T10:01:03.275Z,19.80
2019-05-22T10:03:32.245Z,19.80
2019-05-22T10:06:01.564Z,20.10
2019-05-22T10:08:30.800Z,20.20
2019-05-22T10:11:00.175Z,20.00
2019-05-22T10:13:29.509Z,19.90
2019-05-22T10:15:58.511Z,19.70
2019-05-22T10:18:27.438Z,19.20
2019-05-22T10:20:57.403Z,19.40
2019-05-22T10:23:27.224Z,19.60
2019-05-22T10:25:56.127Z,20.00
2019-05-22T10:28:25.350Z,20.30
2019-05-22T10:30:55.957Z,20.30
2019-05-22T10:33:25.216Z,20.50
2019-05-22T10:35:54.073Z,20.60
2019-05-22T10:38:23.448Z,20.70
2019-05-22T10:40:52.413Z,20.70
2019-05-22T10:43:21.515Z,20.60
2019-05-22T10:45:50.541Z,20.60
2019-05-22T10:48:19.443Z,20.80
2019-05-22T10:50:48.463Z,21.00
2019-05-22T10:53:32.440Z,20.70
2019-05-22T10:55:48.369Z,20.70
2019-05-22T10:58:17.560Z,20.20
2019-05-22T11:00:46.754Z,19.90
2019-05-22T11:03:16.577Z,19.80
2019-05-22T11:05:45.962Z,20.10
2019-05-22T11:08:14.900Z,20.40
2019-05-22T11:10:45.299Z,20.80
2019-05-22T11:13:14.328Z,20.60
2019-05-22T11:15:43.595Z,20.50
2019-05-22T11:18:12.714Z,20.70
2019-05-22T11:20:42.658Z,21.10
2019-05-22T11:23:12.188Z,21.10
2019-05-22T11:25:41.245Z,21.40
2019-05-22T11:28:10.025Z,21.20
2019-05-22T11:30:40.332Z,20.70
2019-05-22T11:33:09.873Z,20.40
2019-05-22T11:35:39.949Z,19.90
2019-05-22T11:38:09.969Z,19.80
2019-05-22T11:40:40.575Z,19.60
2019-05-22T11:43:11.239Z,19.60
2019-05-22T11:45:40.089Z,19.80
2019-05-22T11:48:10.757Z,19.70
2019-05-22T11:50:40.447Z,19.50
2019-05-22T11:53:09.807Z,19.50
2019-05-22T11:55:45.135Z,19.50
2019-05-22T11:58:10.589Z,19.50
2019-05-22T12:00:39.519Z,19.50
2019-05-22T12:03:09.409Z,19.20
2019-05-22T12:05:38.784Z,18.70
2019-05-22T12:08:08.244Z,18.60
2019-05-22T12:10:37.986Z,18.50
2019-05-22T12:13:08.484Z,18.50
2019-05-22T12:15:38.450Z,18.50
2019-05-22T12:18:07.812Z,18.50
2019-05-22T12:20:36.827Z,18.50
2019-05-22T12:23:06.382Z,18.50
2019-05-22T12:25:35.504Z,18.60
2019-05-22T12:28:05.330Z,18.70
2019-05-22T12:30:35.326Z,18.80
2019-05-22T12:33:12.560Z,18.80
2019-05-22T12:35:37.363Z,18.90
2019-05-22T12:38:07.663Z,18.80
2019-05-22T12:40:39.413Z,18.90
2019-05-22T12:43:09.210Z,18.90
2019-05-22T12:45:38.139Z,19.00
2019-05-22T12:48:07.563Z,19.10
2019-05-22T12:50:36.536Z,18.90
2019-05-22T12:53:07.840Z,18.80
2019-05-22T12:55:37.195Z,19.00
2019-05-22T12:58:06.691Z,19.20
2019-05-22T13:00:36.302Z,19.20
2019-05-22T13:03:06.441Z,19.40
2019-05-22T13:05:36.890Z,19.40
2019-05-22T13:08:06.904Z,19.20
2019-05-22T13:10:36.577Z,19.10
2019-05-22T13:13:05.924Z,19.10
2019-05-22T13:15:37.626Z,19.20
2019-05-22T13:18:10.042Z,19.10
2019-05-22T13:20:43.994Z,19.20
2019-05-22T13:23:13.705Z,19.10
2019-05-22T13:25:43.289Z,19.10
2019-05-22T13:28:14.589Z,19.20
2019-05-22T13:30:48.324Z,19.00
2019-05-22T13:33:20.989Z,19.10
2019-05-22T13:35:51.250Z,19.10
2019-05-22T13:38:20.075Z,19.20
2019-05-22T13:40:49.647Z,19.00
2019-05-22T13:43:19.192Z,19.00
2019-05-22T13:45:48.055Z,19.00
2019-05-22T13:48:17.052Z,19.10
2019-05-22T13:50:46.168Z,19.00
2019-05-22T13:53:17.948Z,19.00
2019-05-22T13:55:46.972Z,18.90
2019-05-22T13:58:20.401Z,19.10
2019-05-22T14:00:50.146Z,19.00
2019-05-22T14:03:25.673Z,19.00
2019-05-22T14:05:57.382Z,19.00
2019-05-22T14:08:26.572Z,19.10
2019-05-22T14:10:57.953Z,19.20
2019-05-22T14:13:27.692Z,19.30
2019-05-22T14:15:57.524Z,19.30
2019-05-22T14:18:27.126Z,19.30
2019-05-22T14:20:56.107Z,19.10
2019-05-22T14:23:25.220Z,19.20
2019-05-22T14:25:54.618Z,19.30
2019-05-22T14:28:25.253Z,19.30
2019-05-22T14:30:54.443Z,19.30
2019-05-22T14:33:27.824Z,19.40
2019-05-22T14:35:57.377Z,19.50
2019-05-22T14:38:27.121Z,19.60
2019-05-22T14:40:57.216Z,19.70
2019-05-22T14:43:26.890Z,19.80
2019-05-22T14:45:56.005Z,19.90
2019-05-22T14:48:25.118Z,19.80
2019-05-22T14:50:54.102Z,19.60
2019-05-22T14:53:23.460Z,19.70
2019-05-22T14:55:53.022Z,20.00
2019-05-22T14:58:22.725Z,20.20
2019-05-22T15:00:52.838Z,20.20
2019-05-22T15:03:23.007Z,20.00
2019-05-22T15:05:52.793Z,19.80
2019-05-22T15:08:21.652Z,19.80
2019-05-22T15:10:50.493Z,19.90
2019-05-22T15:13:19.548Z,19.80
2019-05-22T15:15:48.417Z,19.90
2019-05-22T15:18:17.675Z,20.00
2019-05-22T15:21:04.406Z,19.90
2019-05-22T15:23:34.182Z,19.70
2019-05-22T15:26:03.824Z,19.60
2019-05-22T15:28:32.921Z,19.50
2019-05-22T15:31:02.814Z,19.30
2019-05-22T15:33:33.764Z,19.20
2019-05-22T15:36:06.572Z,19.20
2019-05-22T15:38:35.309Z,19.30
2019-05-22T15:41:05.363Z,19.30
2019-05-22T15:43:34.773Z,19.30
2019-05-22T15:46:07.035Z,19.40
2019-05-22T15:48:38.027Z,19.40
2019-05-22T15:51:08.177Z,19.30
2019-05-22T15:53:39.045Z,19.20
2019-05-22T15:56:09.625Z,19.30
2019-05-22T15:58:45.543Z,19.20
2019-05-22T16:01:17.033Z,19.10
2019-05-22T16:03:48.346Z,19.00
2019-05-22T16:06:18.389Z,18.90
2019-05-22T16:08:48.762Z,18.90
2019-05-22T16:12:12.619Z,18.90
2019-05-22T16:14:00.123Z,19.00
2019-05-22T16:16:30.073Z,19.20
2019-05-22T16:19:04.871Z,19.50
2019-05-22T16:21:34.912Z,19.70
2019-05-22T16:24:05.753Z,19.90
2019-05-22T16:26:35.985Z,19.90
2019-05-22T16:29:05.927Z,20.00
2019-05-22T16:31:37.171Z,20.00
2019-05-22T16:34:06.164Z,20.00
2019-05-22T16:36:35.101Z,19.90
2019-05-22T16:39:05.030Z,20.10
2019-05-22T16:41:34.969Z,20.20
2019-05-22T16:44:04.584Z,20.20
2019-05-22T16:46:34.946Z,20.20
2019-05-22T16:49:04.303Z,20.40
2019-05-22T16:51:33.537Z,20.50
2019-05-22T16:54:06.177Z,20.20
2019-05-22T16:56:37.393Z,20.10
2019-05-22T16:59:09.568Z,20.10
2019-05-22T17:01:57.042Z,20.20
2019-05-22T17:04:11.725Z,20.00
2019-05-22T17:06:43.136Z,19.70
2019-05-22T17:09:15.036Z,19.70
2019-05-22T17:11:44.629Z,19.80
2019-05-22T17:14:14.677Z,19.80
2019-05-22T17:16:43.792Z,19.80
2019-05-22T17:19:26.713Z,19.60
2019-05-22T17:21:45.891Z,19.50
2019-05-22T17:24:14.941Z,19.30
2019-05-22T17:26:44.915Z,19.20
2019-05-22T17:29:15.221Z,19.10
2019-05-22T17:31:44.226Z,19.00
2019-05-22T17:34:31.045Z,19.10
2019-05-22T17:37:01.943Z,19.10
2019-05-22T17:39:34.119Z,19.30
2019-05-22T17:42:05.002Z,19.60
2019-05-22T17:44:35.425Z,19.60
2019-05-22T17:47:06.782Z,19.60
2019-05-22T17:49:36.244Z,19.60
2019-05-22T17:52:05.815Z,19.40
2019-05-22T17:54:34.981Z,19.20
2019-05-22T17:57:05.372Z,19.00
2019-05-22T17:59:34.522Z,18.90
2019-05-22T18:02:05.614Z,18.70
2019-05-22T18:04:36.169Z,18.70
2019-05-22T18:07:05.617Z,18.90
2019-05-22T18:09:34.866Z,18.80
2019-05-22T18:12:05.913Z,18.80
2019-05-22T18:14:36.078Z,19.00
2019-05-22T18:17:05.694Z,19.10
2019-05-22T18:19:35.804Z,19.10
2019-05-22T18:22:06.414Z,19.20
2019-05-22T18:24:35.719Z,19.10
2019-05-22T18:27:04.901Z,19.30
2019-05-22T18:29:33.929Z,19.40
2019-05-22T18:32:04.812Z,19.50
2019-05-22T18:34:33.762Z,19.60
2019-05-22T18:37:02.595Z,19.40
2019-05-22T18:39:32.460Z,19.20
2019-05-22T18:42:01.445Z,19.10
2019-05-22T18:44:30.333Z,19.00
2019-05-22T18:46:59.848Z,19.10
2019-05-22T18:49:28.894Z,19.20
2019-05-22T18:51:58.024Z,19.20
2019-05-22T18:54:27.045Z,19.20
2019-05-22T18:56:55.970Z,19.00
2019-05-22T18:59:25.120Z,18.80
2019-05-22T19:01:54.999Z,18.70
2019-05-22T19:04:23.980Z,18.60
2019-05-22T19:07:00.145Z,18.70
2019-05-22T19:09:31.759Z,18.70
2019-05-22T19:12:01.551Z,18.70
2019-05-22T19:14:37.116Z,18.70
2019-05-22T19:17:10.528Z,18.70
2019-05-22T19:19:39.842Z,18.70
2019-05-22T19:22:09.568Z,18.70
2019-05-22T19:24:41.687Z,18.70
2019-05-22T19:27:14.270Z,18.70
2019-05-22T19:29:58.081Z,18.70
2019-05-22T19:32:34.657Z,18.70
2019-05-22T19:35:06.930Z,18.70
2019-05-22T19:37:36.218Z,18.70
2019-05-22T19:40:12.580Z,18.60
2019-05-22T19:42:51.628Z,18.60
2019-05-22T19:45:20.957Z,18.50
2019-05-22T19:47:53.017Z,18.50
2019-05-22T19:50:24.188Z,18.40
2019-05-22T19:52:55.117Z,18.30
2019-05-22T19:55:27.548Z,18.20
2019-05-22T19:57:57.619Z,18.10
2019-05-22T20:00:28.111Z,18.00
2019-05-22T20:02:58.361Z,18.00
2019-05-22T20:05:27.952Z,17.90
2019-05-22T20:07:57.089Z,17.80
2019-05-22T20:10:27.094Z,17.70
2019-05-22T20:12:56.588Z,17.70
2019-05-22T20:15:26.169Z,17.60
2019-05-22T20:17:56.191Z,17.60
2019-05-22T20:20:25.700Z,17.50
2019-05-22T20:22:55.076Z,17.40
2019-05-22T20:25:24.413Z,17.40
2019-05-22T20:27:54.292Z,17.30
2019-05-22T20:30:24.527Z,17.30
2019-05-22T20:32:53.391Z,17.20
2019-05-22T20:35:22.373Z,17.10
2019-05-22T20:37:51.689Z,17.00
2019-05-22T20:40:21.948Z,17.00
2019-05-22T20:42:51.025Z,17.00
2019-05-22T20:45:24.558Z,16.90
2019-05-22T20:48:07.705Z,16.80
2019-05-22T20:50:37.226Z,16.80
2019-05-22T20:53:13.036Z,16.70
2019-05-22T20:55:43.703Z,16.70
2019-05-22T20:58:13.532Z,16.60
2019-05-22T21:00:43.427Z,16.60
2019-05-22T21:03:13.309Z,16.50
2019-05-22T21:05:44.893Z,16.50
2019-05-22T21:08:15.830Z,16.40
2019-05-22T21:10:48.197Z,16.40
2019-05-22T21:13:19.875Z,16.30
2019-05-22T21:15:49.668Z,16.30
2019-05-22T21:18:20.439Z,16.30
2019-05-22T21:20:54.553Z,16.20
2019-05-22T21:23:21.817Z,16.20
2019-05-22T21:25:52.329Z,16.10
2019-05-22T21:28:21.369Z,16.00
2019-05-22T21:30:51.850Z,15.90
2019-05-22T21:33:21.641Z,15.90
2019-05-22T21:35:50.816Z,15.80
2019-05-22T21:38:20.611Z,15.80
2019-05-22T21:40:50.756Z,15.80
2019-05-22T21:43:20.253Z,15.70
2019-05-22T21:45:49.357Z,15.70
2019-05-22T21:48:20.285Z,15.60
2019-05-22T21:50:49.325Z,15.60
2019-05-22T21:53:19.800Z,15.50
2019-05-22T21:56:03.358Z,15.40
2019-05-22T21:58:19.427Z,15.40
2019-05-22T22:01:27.984Z,15.30
2019-05-22T22:04:03.835Z,15.30
2019-05-22T22:06:33.519Z,15.20
2019-05-22T22:09:03.642Z,15.20
2019-05-22T22:11:33.308Z,15.20
2019-05-22T22:14:03.310Z,15.10
2019-05-22T22:16:32.151Z,15.10
2019-05-22T22:19:01.097Z,15.00
2019-05-22T22:21:30.811Z,15.00
2019-05-22T22:23:59.784Z,15.00
2019-05-22T22:26:28.903Z,14.90
2019-05-22T22:28:58.094Z,14.90
2019-05-22T22:31:29.881Z,14.90
2019-05-22T22:34:07.107Z,14.90
2019-05-22T22:36:36.244Z,14.80
2019-05-22T22:39:10.159Z,14.80
2019-05-22T22:41:39.214Z,14.70
2019-05-22T22:44:10.110Z,14.70
2019-05-22T22:46:55.944Z,14.70
2019-05-22T22:49:27.767Z,14.60
2019-05-22T22:51:57.333Z,14.60
2019-05-22T22:54:26.519Z,14.60
2019-05-22T22:56:56.108Z,14.60
2019-05-22T22:59:26.910Z,14.60
2019-05-22T23:01:57.142Z,14.50
2019-05-22T23:04:28.317Z,14.50
2019-05-22T23:07:02.066Z,14.50
2019-05-22T23:09:31.543Z,14.50
2019-05-22T23:12:01.327Z,14.50
2019-05-22T23:14:32.705Z,14.50
2019-05-22T23:17:01.533Z,14.50
2019-05-22T23:19:31.962Z,14.50
2019-05-22T23:22:01.332Z,14.40
2019-05-22T23:24:30.889Z,14.40
2019-05-22T23:27:00.914Z,14.40
2019-05-22T23:29:30.695Z,14.40
2019-05-22T23:32:00.648Z,14.30
2019-05-22T23:34:30.690Z,14.30
2019-05-22T23:37:00.527Z,14.30
2019-05-22T23:39:33.480Z,14.20
2019-05-22T23:42:10.121Z,14.20
2019-05-22T23:44:41.223Z,14.20
2019-05-22T23:47:11.361Z,14.20
2019-05-22T23:49:42.605Z,14.10
2019-05-22T23:52:13.202Z,14.10
2019-05-22T23:54:42.053Z,14.00
2019-05-22T23:57:13.005Z,14.00
2019-05-22T23:59:44.596Z,14.00
